createdAt,value
2023-02-14T00:00:54.325Z,103522.66
2023-02-14T00:03:22.363Z,103527.84
2023-02-14T00:05:50.406Z,103524.22
2023-02-14T00:08:19.645Z,103523.25
2023-02-14T00:10:47.539Z,103527.63
2023-02-14T00:13:15.375Z,103531.06
2023-02-14T00:15:42.252Z,103528.13
2023-02-14T00:18:10.122Z,103529.38
2023-02-14T00:20:38.070Z,103527.63
2023-02-14T00:23:05.956Z,103530.16
2023-02-14T00:25:35.971Z,103528.81
2023-02-14T00:28:03.843Z,103524.66
2023-02-14T00:30:31.781Z,103526.94
2023-02-14T00:32:59.735Z,103516.44
2023-02-14T00:35:27.562Z,103518.88
2023-02-14T00:37:55.438Z,103511.28
2023-02-14T00:40:23.739Z,103521.41
2023-02-14T00:42:53.091Z,103521.66
2023-02-14T00:45:23.902Z,103519.66
2023-02-14T00:47:51.850Z,103518.66
2023-02-14T00:50:19.955Z,103525.88
2023-02-14T00:52:47.866Z,103521.97
2023-02-14T00:55:16.822Z,103521.25
2023-02-14T00:57:44.752Z,103520.97
2023-02-14T01:00:15.602Z,103521.72
2023-02-14T01:02:43.571Z,103517.44
2023-02-14T01:05:11.504Z,103525.88
2023-02-14T01:07:39.377Z,103519.59
2023-02-14T01:10:08.484Z,103522.00
2023-02-14T01:12:36.403Z,103512.09
2023-02-14T01:15:06.606Z,103519.78
2023-02-14T01:17:36.482Z,103519.66
2023-02-14T01:20:07.512Z,103512.66
2023-02-14T01:22:36.717Z,103516.66
2023-02-14T01:25:05.505Z,103520.91
2023-02-14T01:27:33.404Z,103523.72
2023-02-14T01:30:01.322Z,103518.81
2023-02-14T01:32:31.927Z,103522.91
2023-02-14T01:35:01.277Z,103523.00
2023-02-14T01:37:29.198Z,103520.22
2023-02-14T01:39:57.302Z,103518.16
2023-02-14T01:42:25.190Z,103516.03
2023-02-14T01:45:02.335Z,103515.53
2023-02-14T01:47:34.704Z,103515.19
2023-02-14T01:50:07.727Z,103521.38
2023-02-14T01:52:36.149Z,103511.84
2023-02-14T01:55:06.921Z,103519.59
2023-02-14T01:57:37.592Z,103515.88
2023-02-14T02:00:25.478Z,103511.22
2023-02-14T02:02:53.805Z,103520.75
2023-02-14T02:05:24.730Z,103514.50
2023-02-14T02:07:53.024Z,103510.75
2023-02-14T02:10:21.457Z,103512.50
2023-02-14T02:12:52.625Z,103513.31
2023-02-14T02:16:54.440Z,103513.31
2023-02-14T02:19:46.233Z,103504.75
2023-02-14T02:22:40.623Z,103508.47
2023-02-14T02:25:17.977Z,103496.44
2023-02-14T02:28:02.290Z,103504.47
2023-02-14T02:30:59.383Z,103508.19
2023-02-14T02:33:49.942Z,103507.06
2023-02-14T02:36:59.138Z,103509.13
2023-02-14T02:39:39.438Z,103512.22
2023-02-14T02:42:17.044Z,103507.78
2023-02-14T02:44:51.164Z,103508.47
2023-02-14T02:47:26.908Z,103503.59
2023-02-14T02:50:17.532Z,103514.38
2023-02-14T02:53:05.992Z,103504.94
2023-02-14T02:56:01.044Z,103507.06
2023-02-14T02:58:35.564Z,103499.03
2023-02-14T03:01:07.376Z,103497.91
2023-02-14T03:03:53.903Z,103496.13
2023-02-14T03:06:22.288Z,103499.66
2023-02-14T03:08:50.162Z,103493.38
2023-02-14T03:11:19.666Z,103492.38
2023-02-14T03:14:09.726Z,103496.66
2023-02-14T03:16:44.325Z,103489.88
2023-02-14T03:19:37.020Z,103496.94
2023-02-14T03:22:09.203Z,103486.88
2023-02-14T03:24:45.661Z,103489.28
2023-02-14T03:27:17.897Z,103491.66
2023-02-14T03:29:59.883Z,103491.88
2023-02-14T03:32:36.079Z,103494.00
2023-02-14T03:35:11.500Z,103486.59
2023-02-14T03:37:45.883Z,103498.75
2023-02-14T03:40:17.472Z,103492.41
2023-02-14T03:42:51.381Z,103489.69
2023-02-14T03:45:24.518Z,103492.03
2023-02-14T03:47:52.708Z,103491.31
2023-02-14T03:50:21.296Z,103489.81
2023-02-14T03:52:51.773Z,103491.50
2023-02-14T03:55:26.613Z,103491.44
2023-02-14T03:58:01.181Z,103484.81
2023-02-14T04:00:29.862Z,103487.31
2023-02-14T04:03:02.132Z,103484.84
2023-02-14T04:05:30.140Z,103481.09
2023-02-14T04:07:59.614Z,103482.66
2023-02-14T04:10:27.948Z,103483.69
2023-02-14T04:12:57.137Z,103485.38
2023-02-14T04:15:24.983Z,103499.88
2023-02-14T04:18:10.332Z,103495.94
2023-02-14T04:20:38.215Z,103498.56
2023-02-14T04:23:06.063Z,103494.91
2023-02-14T04:25:34.011Z,103495.63
2023-02-14T04:28:03.206Z,103497.19
2023-02-14T04:30:31.216Z,103484.56
2023-02-14T04:32:59.141Z,103489.06
2023-02-14T04:35:27.126Z,103492.28
2023-02-14T04:37:54.952Z,103488.66
2023-02-14T04:40:22.962Z,103491.19
2023-02-14T04:42:50.898Z,103485.78
2023-02-14T04:45:20.531Z,103478.81
2023-02-14T04:47:48.457Z,103483.16
2023-02-14T04:50:16.542Z,103474.69
2023-02-14T04:52:44.542Z,103474.34
2023-02-14T04:55:12.400Z,103488.19
2023-02-14T04:57:40.188Z,103477.19
2023-02-14T05:00:09.166Z,103481.19
2023-02-14T05:02:38.472Z,103475.09
2023-02-14T05:05:07.014Z,103465.16
2023-02-14T05:07:34.831Z,103466.38
2023-02-14T05:10:02.725Z,103468.38
2023-02-14T05:12:30.532Z,103471.34
2023-02-14T05:14:58.457Z,103476.44
2023-02-14T05:17:26.443Z,103469.00
2023-02-14T05:19:55.646Z,103468.25
2023-02-14T05:22:23.513Z,103466.13
2023-02-14T05:24:51.493Z,103472.59
2023-02-14T05:27:20.823Z,103466.41
2023-02-14T05:30:10.016Z,103468.19
2023-02-14T05:32:56.312Z,103465.22
2023-02-14T05:35:25.596Z,103464.78
2023-02-14T05:37:53.516Z,103470.09
2023-02-14T05:42:49.726Z,103472.25
2023-02-14T05:45:17.615Z,103469.13
2023-02-14T05:55:46.882Z,103474.28
2023-02-14T05:58:14.761Z,103469.88
2023-02-14T06:00:42.598Z,103466.63
2023-02-14T06:03:10.507Z,103456.56
2023-02-14T06:05:38.362Z,103463.84
2023-02-14T06:08:06.217Z,103460.06
2023-02-14T06:10:34.121Z,103473.66
2023-02-14T06:13:03.295Z,103467.88
2023-02-14T06:15:31.099Z,103468.00
2023-02-14T06:17:59.022Z,103471.38
2023-02-14T06:20:27.544Z,103469.69
2023-02-14T06:22:55.861Z,103473.34
2023-02-14T06:25:24.573Z,103474.72
2023-02-14T06:27:52.473Z,103477.78
2023-02-14T06:30:21.719Z,103476.84
2023-02-14T06:32:49.845Z,103473.69
2023-02-14T06:35:17.817Z,103472.88
2023-02-14T06:37:46.622Z,103481.31
2023-02-14T06:40:15.371Z,103483.09
2023-02-14T06:42:43.298Z,103471.97
2023-02-14T06:45:11.497Z,103482.81
2023-02-14T06:47:40.782Z,103478.56
2023-02-14T06:50:11.657Z,103481.13
2023-02-14T06:52:40.234Z,103481.25
2023-02-14T06:55:09.127Z,103483.91
2023-02-14T06:57:37.054Z,103480.69
2023-02-14T07:00:05.860Z,103474.41
2023-02-14T07:02:36.395Z,103475.28
2023-02-14T07:05:06.359Z,103477.03
2023-02-14T07:07:34.267Z,103480.16
2023-02-14T07:10:02.138Z,103482.81
2023-02-14T07:12:30.037Z,103481.50
2023-02-14T07:14:57.985Z,103482.31
2023-02-14T07:17:25.952Z,103477.47
2023-02-14T07:19:53.794Z,103477.06
2023-02-14T07:22:23.046Z,103484.16
2023-02-14T07:24:50.900Z,103478.75
2023-02-14T07:27:18.782Z,103487.34
2023-02-14T07:29:46.792Z,103484.16
2023-02-14T07:32:14.734Z,103473.06
2023-02-14T07:34:42.638Z,103474.94
2023-02-14T07:37:10.456Z,103479.72
2023-02-14T07:39:39.768Z,103482.66
2023-02-14T07:42:08.330Z,103482.13
2023-02-14T07:44:36.512Z,103481.22
2023-02-14T07:47:04.535Z,103483.19
2023-02-14T07:49:32.546Z,103478.66
2023-02-14T07:52:00.464Z,103482.91
2023-02-14T07:54:28.462Z,103480.16
2023-02-14T07:56:57.805Z,103480.25
2023-02-14T07:59:26.118Z,103485.47
2023-02-14T08:01:54.219Z,103482.75
2023-02-14T08:04:26.026Z,103480.44
2023-02-14T08:06:54.454Z,103483.91
2023-02-14T08:09:25.620Z,103481.03
2023-02-14T08:12:16.344Z,103487.19
2023-02-14T08:14:44.772Z,103493.66
2023-02-14T08:17:13.534Z,103485.41
2023-02-14T08:19:41.606Z,103489.00
2023-02-14T08:22:09.562Z,103478.94
2023-02-14T08:24:37.416Z,103484.00
2023-02-14T08:27:06.698Z,103478.13
2023-02-14T08:29:34.545Z,103479.53
2023-02-14T08:32:02.600Z,103479.97
2023-02-14T08:34:30.603Z,103486.88
2023-02-14T08:36:58.503Z,103479.91
2023-02-14T08:39:26.370Z,103475.63
2023-02-14T08:41:54.317Z,103482.53
2023-02-14T08:44:24.899Z,103487.06
2023-02-14T08:46:53.818Z,103484.22
2023-02-14T08:49:21.772Z,103489.47
2023-02-14T08:51:49.712Z,103494.00
2023-02-14T08:54:17.593Z,103493.34
2023-02-14T08:56:45.460Z,103489.94
2023-02-14T08:59:13.377Z,103495.16
2023-02-14T09:01:42.723Z,103498.09
2023-02-14T09:04:10.650Z,103503.47
2023-02-14T09:06:39.087Z,103500.06
2023-02-14T09:09:07.477Z,103503.06
2023-02-14T09:11:36.516Z,103504.97
2023-02-14T09:14:04.441Z,103507.44
2023-02-14T09:16:32.502Z,103507.94
2023-02-14T09:19:01.856Z,103503.16
2023-02-14T09:21:30.477Z,103500.22
2023-02-14T09:23:58.483Z,103496.59
2023-02-14T09:26:26.336Z,103497.28
2023-02-14T09:28:54.168Z,103494.16
2023-02-14T09:31:23.771Z,103497.59
2023-02-14T09:33:52.553Z,103500.25
2023-02-14T09:36:21.833Z,103496.00
2023-02-14T09:38:49.785Z,103485.59
2023-02-14T09:41:34.956Z,103501.16
2023-02-14T09:44:04.389Z,103495.44
2023-02-14T09:46:35.315Z,103508.53
2023-02-14T09:49:03.808Z,103502.91
2023-02-14T09:51:33.122Z,103502.47
2023-02-14T09:54:03.722Z,103499.78
2023-02-14T09:56:50.301Z,103492.88
2023-02-14T09:59:25.793Z,103494.97
2023-02-14T10:01:58.188Z,103491.31
2023-02-14T10:04:30.407Z,103492.59
2023-02-14T10:07:02.757Z,103489.28
2023-02-14T10:09:55.590Z,103490.75
2023-02-14T10:12:26.435Z,103483.97
2023-02-14T10:14:55.653Z,103489.41
2023-02-14T10:17:26.522Z,103480.78
2023-02-14T10:19:58.474Z,103497.53
2023-02-14T10:22:32.936Z,103492.22
2023-02-14T10:25:04.752Z,103489.47
2023-02-14T10:27:35.397Z,103496.88
2023-02-14T10:30:03.704Z,103492.56
2023-02-14T10:32:36.557Z,103496.66
2023-02-14T10:35:07.433Z,103493.09
2023-02-14T10:37:49.314Z,103492.41
2023-02-14T10:40:39.299Z,103496.97
2023-02-14T10:43:15.568Z,103489.72
2023-02-14T10:45:48.418Z,103489.72
2023-02-14T10:48:22.157Z,103480.25
2023-02-14T10:50:54.670Z,103475.59
2023-02-14T10:53:28.371Z,103478.91
2023-02-14T10:56:01.416Z,103474.94
2023-02-14T10:58:30.319Z,103477.00
2023-02-14T11:01:02.751Z,103475.06
2023-02-14T11:03:31.317Z,103472.44
2023-02-14T11:05:59.399Z,103473.56
2023-02-14T11:08:30.869Z,103480.31
2023-02-14T11:11:03.959Z,103469.47
2023-02-14T11:13:35.300Z,103471.63
2023-02-14T11:16:05.478Z,103476.25
2023-02-14T11:18:36.288Z,103476.72
2023-02-14T11:21:07.527Z,103478.19
2023-02-14T11:23:42.233Z,103472.22
2023-02-14T11:26:16.518Z,103468.88
2023-02-14T11:28:52.537Z,103466.69
2023-02-14T11:31:32.384Z,103462.91
2023-02-14T11:34:03.663Z,103459.22
2023-02-14T11:36:33.739Z,103450.69
2023-02-14T11:39:08.801Z,103450.88
2023-02-14T11:41:50.247Z,103455.75
2023-02-14T11:44:22.802Z,103457.88
2023-02-14T11:46:53.496Z,103444.22
2023-02-14T11:49:32.945Z,103447.78
2023-02-14T11:52:02.991Z,103445.63
2023-02-14T11:54:35.820Z,103434.56
2023-02-14T11:57:07.532Z,103439.22
2023-02-14T11:59:39.579Z,103426.00
2023-02-14T12:02:18.607Z,103423.44
2023-02-14T12:04:50.059Z,103425.53
2023-02-14T12:07:21.240Z,103420.09
2023-02-14T12:10:07.560Z,103406.41
2023-02-14T12:12:36.423Z,103407.53
2023-02-14T12:15:24.452Z,103414.63
2023-02-14T12:17:55.397Z,103404.34
2023-02-14T12:20:28.718Z,103403.06
2023-02-14T12:23:01.490Z,103405.69
2023-02-14T12:25:40.202Z,103407.47
2023-02-14T12:28:13.312Z,103405.03
2023-02-14T12:30:41.047Z,103395.91
2023-02-14T12:33:17.965Z,103392.16
2023-02-14T12:35:52.260Z,103395.63
2023-02-14T12:38:26.758Z,103397.72
2023-02-14T12:41:02.874Z,103389.25
2023-02-14T12:43:50.608Z,103386.91
2023-02-14T12:46:43.265Z,103373.25
2023-02-14T12:49:36.065Z,103372.22
2023-02-14T12:52:13.554Z,103372.09
2023-02-14T12:54:53.268Z,103370.38
2023-02-14T12:57:33.487Z,103370.78
2023-02-14T13:00:12.584Z,103361.56
2023-02-14T13:02:58.480Z,103362.25
2023-02-14T13:05:35.761Z,103357.50
2023-02-14T13:08:14.927Z,103347.72
2023-02-14T13:10:52.016Z,103348.09
2023-02-14T13:13:27.402Z,103350.53
2023-02-14T13:16:01.647Z,103345.53
2023-02-14T13:18:38.971Z,103342.41
2023-02-14T13:21:10.072Z,103337.97
2023-02-14T13:23:40.943Z,103337.81
2023-02-14T13:26:12.671Z,103335.06
2023-02-14T13:28:45.997Z,103325.06
2023-02-14T13:31:15.145Z,103323.13
2023-02-14T13:33:45.899Z,103325.34
2023-02-14T13:36:14.622Z,103324.66
2023-02-14T13:38:45.555Z,103322.47
2023-02-14T13:41:14.753Z,103324.25
2023-02-14T13:43:57.779Z,103313.19
2023-02-14T13:46:51.427Z,103313.78
2023-02-14T13:49:29.317Z,103305.97
2023-02-14T13:51:58.940Z,103300.44
2023-02-14T13:54:33.054Z,103306.44
2023-02-14T13:57:02.329Z,103304.03
2023-02-14T13:59:33.340Z,103301.09
2023-02-14T14:02:31.807Z,103300.53
2023-02-14T14:04:59.976Z,103295.28
2023-02-14T14:07:30.829Z,103299.03
2023-02-14T14:10:01.608Z,103295.22
2023-02-14T14:12:45.356Z,103286.81
2023-02-14T14:15:17.641Z,103291.69
2023-02-14T14:17:50.654Z,103293.28
2023-02-14T14:20:31.664Z,103285.44
2023-02-14T14:23:01.300Z,103282.81
2023-02-14T14:25:33.050Z,103284.72
2023-02-14T14:28:01.738Z,103270.06
2023-02-14T14:30:33.856Z,103270.75
2023-02-14T14:33:14.070Z,103279.13
2023-02-14T14:35:53.373Z,103264.50
2023-02-14T14:38:21.350Z,103264.13
2023-02-14T14:40:49.707Z,103259.84
2023-02-14T14:43:24.216Z,103252.72
2023-02-14T14:45:56.126Z,103252.44
2023-02-14T14:48:30.545Z,103253.59
2023-02-14T14:50:59.040Z,103242.00
2023-02-14T14:53:29.628Z,103245.84
2023-02-14T14:55:58.457Z,103247.28
2023-02-14T14:58:37.554Z,103240.06
2023-02-14T15:01:09.464Z,103229.50
2023-02-14T15:03:37.367Z,103226.97
2023-02-14T15:06:14.743Z,103235.06
2023-02-14T15:08:42.703Z,103227.94
2023-02-14T15:11:13.027Z,103233.28
2023-02-14T15:13:53.841Z,103221.31
2023-02-14T15:16:26.200Z,103229.44
2023-02-14T15:18:56.878Z,103225.31
2023-02-14T15:21:24.967Z,103221.38
2023-02-14T15:23:53.953Z,103214.19
2023-02-14T15:26:26.451Z,103220.13
2023-02-14T15:29:00.174Z,103223.78
2023-02-14T15:31:32.202Z,103221.41
2023-02-14T15:34:02.668Z,103218.69
2023-02-14T15:36:31.338Z,103216.53
2023-02-14T15:39:00.672Z,103222.28
2023-02-14T15:41:28.600Z,103214.97
2023-02-14T15:43:58.070Z,103204.06
2023-02-14T15:46:34.681Z,103210.34
2023-02-14T15:49:07.483Z,103212.28
2023-02-14T15:51:36.545Z,103204.34
2023-02-14T15:54:07.570Z,103197.13
2023-02-14T15:56:38.296Z,103206.19
2023-02-14T15:59:09.873Z,103207.16
2023-02-14T16:01:39.649Z,103199.56
2023-02-14T16:04:08.683Z,103203.50
2023-02-14T16:06:38.505Z,103195.22
2023-02-14T16:09:09.125Z,103197.66
2023-02-14T16:11:38.270Z,103187.94
2023-02-14T16:14:31.669Z,103189.50
2023-02-14T16:17:03.004Z,103175.84
2023-02-14T16:19:39.339Z,103174.03
2023-02-14T16:22:08.193Z,103176.41
2023-02-14T16:24:37.969Z,103179.53
2023-02-14T16:27:07.937Z,103174.66
2023-02-14T16:29:36.662Z,103169.28
2023-02-14T16:32:16.827Z,103167.88
2023-02-14T16:34:47.289Z,103162.84
2023-02-14T16:37:21.444Z,103163.50
2023-02-14T16:39:50.051Z,103161.19
2023-02-14T16:42:18.689Z,103160.72
2023-02-14T16:44:46.861Z,103156.31
2023-02-14T16:47:18.070Z,103149.31
2023-02-14T16:49:46.882Z,103151.19
2023-02-14T16:52:17.171Z,103143.00
2023-02-14T16:54:45.152Z,103134.50
2023-02-14T16:57:18.853Z,103142.78
2023-02-14T16:59:47.022Z,103140.13
2023-02-14T17:02:18.347Z,103138.59
2023-02-14T17:04:46.395Z,103138.69
2023-02-14T17:07:17.852Z,103129.03
2023-02-14T17:09:50.313Z,103132.56
2023-02-14T17:12:21.898Z,103131.34
2023-02-14T17:14:53.014Z,103136.25
2023-02-14T17:17:22.275Z,103129.34
2023-02-14T17:19:52.670Z,103126.59
2023-02-14T17:22:20.954Z,103114.28
2023-02-14T17:24:48.817Z,103113.41
2023-02-14T17:27:16.709Z,103117.25
2023-02-14T17:29:44.623Z,103109.91
2023-02-14T17:32:12.892Z,103113.50
2023-02-14T17:34:42.380Z,103102.66
2023-02-14T17:37:10.346Z,103105.03
2023-02-14T17:39:38.243Z,103105.22
2023-02-14T17:42:06.599Z,103099.84
2023-02-14T17:44:36.006Z,103095.13
2023-02-14T17:47:04.230Z,103094.94
2023-02-14T17:49:32.192Z,103093.97
2023-02-14T17:52:01.460Z,103092.81
2023-02-14T17:54:29.381Z,103087.84
2023-02-14T17:56:57.448Z,103086.06
2023-02-14T17:59:27.006Z,103084.47
2023-02-14T18:01:54.949Z,103076.69
2023-02-14T18:04:22.867Z,103080.47
2023-02-14T18:06:50.802Z,103082.72
2023-02-14T18:09:21.495Z,103071.09
2023-02-14T18:11:50.646Z,103067.66
2023-02-14T18:14:18.683Z,103067.09
2023-02-14T18:16:47.337Z,103064.28
2023-02-14T18:19:17.060Z,103070.03
2023-02-14T18:21:46.364Z,103067.03
2023-02-14T18:24:15.578Z,103062.56
2023-02-14T18:26:44.932Z,103062.22
2023-02-14T18:29:13.272Z,103066.66
2023-02-14T18:31:42.950Z,103064.22
2023-02-14T18:34:11.606Z,103064.53
2023-02-14T18:36:41.519Z,103051.94
2023-02-14T18:39:09.711Z,103045.22
2023-02-14T18:41:37.906Z,103046.56
2023-02-14T18:44:07.349Z,103047.31
2023-02-14T18:46:36.443Z,103041.75
2023-02-14T18:49:07.182Z,103027.47
2023-02-14T18:51:37.282Z,103020.56
2023-02-14T18:54:05.544Z,103020.47
2023-02-14T18:56:35.682Z,103021.19
2023-02-14T18:59:05.574Z,103017.75
2023-02-14T19:01:37.420Z,103013.13
2023-02-14T19:04:08.767Z,103009.78
2023-02-14T19:06:37.277Z,103015.50
2023-02-14T19:09:09.325Z,103006.66
2023-02-14T19:11:37.657Z,103006.94
2023-02-14T19:14:10.081Z,103000.75
2023-02-14T19:16:42.150Z,102999.84
2023-02-14T19:19:10.242Z,102998.34
2023-02-14T19:21:38.427Z,102995.94
2023-02-14T19:24:08.004Z,102991.94
2023-02-14T19:26:40.251Z,102996.28
2023-02-14T19:29:10.625Z,102985.84
2023-02-14T19:31:41.657Z,102998.41
2023-02-14T19:34:15.043Z,102993.22
2023-02-14T19:36:42.931Z,102993.97
2023-02-14T19:39:12.095Z,102993.09
2023-02-14T19:41:40.179Z,102988.91
2023-02-14T19:44:09.514Z,102985.31
2023-02-14T19:46:38.249Z,102975.66
2023-02-14T19:49:07.820Z,102980.00
2023-02-14T19:51:37.031Z,102980.88
2023-02-14T19:54:07.216Z,102977.34
2023-02-14T19:56:37.641Z,102973.06
2023-02-14T19:59:09.120Z,102979.78
2023-02-14T20:01:39.579Z,102979.25
2023-02-14T20:04:10.934Z,102969.94
2023-02-14T20:06:39.181Z,102965.53
2023-02-14T20:09:07.226Z,102959.53
2023-02-14T20:11:36.644Z,102956.06
2023-02-14T20:14:05.853Z,102951.09
2023-02-14T20:16:36.604Z,102946.88
2023-02-14T20:19:08.002Z,102949.22
2023-02-14T20:21:37.235Z,102951.97
2023-02-14T20:24:06.142Z,102948.25
2023-02-14T20:26:35.375Z,102951.56
2023-02-14T20:29:05.048Z,102941.44
2023-02-14T20:31:34.001Z,102942.13
2023-02-14T20:34:02.259Z,102941.50
2023-02-14T20:36:30.581Z,102944.69
2023-02-14T20:39:01.166Z,102941.38
2023-02-14T20:41:30.138Z,102933.59
2023-02-14T20:44:04.620Z,102929.41
2023-02-14T20:46:32.774Z,102928.25
2023-02-14T20:49:00.628Z,102930.91
2023-02-14T20:51:28.548Z,102931.72
2023-02-14T20:53:56.920Z,102927.94
2023-02-14T20:56:26.227Z,102924.50
2023-02-14T20:58:54.097Z,102921.94
2023-02-14T21:01:23.524Z,102920.97
2023-02-14T21:03:53.039Z,102925.22
2023-02-14T21:06:23.577Z,102922.09
2023-02-14T21:08:51.655Z,102922.34
2023-02-14T21:11:22.540Z,102924.81
2023-02-14T21:13:54.822Z,102921.50
2023-02-14T21:16:22.883Z,102913.50
2023-02-14T21:18:55.728Z,102910.16
2023-02-14T21:21:25.835Z,102916.78
2023-02-14T21:23:54.123Z,102910.84
2023-02-14T21:26:22.348Z,102917.31
2023-02-14T21:28:52.009Z,102913.22
2023-02-14T21:31:21.936Z,102906.13
2023-02-14T21:33:51.151Z,102914.75
2023-02-14T21:36:21.874Z,102917.06
2023-02-14T21:38:49.757Z,102905.16
2023-02-14T21:41:19.261Z,102896.13
2023-02-14T21:43:48.730Z,102898.34
2023-02-14T21:46:19.860Z,102888.78
2023-02-14T21:49:05.792Z,102889.50
2023-02-14T21:51:33.682Z,102885.03
2023-02-14T21:54:01.690Z,102887.13
2023-02-14T21:56:29.630Z,102882.88
2023-02-14T21:58:57.708Z,102876.94
2023-02-14T22:01:28.482Z,102878.03
2023-02-14T22:03:56.940Z,102872.63
2023-02-14T22:06:25.569Z,102876.00
2023-02-14T22:08:54.397Z,102883.75
2023-02-14T22:11:22.735Z,102882.88
2023-02-14T22:13:50.721Z,102880.13
2023-02-14T22:16:20.197Z,102872.56
2023-02-14T22:18:49.911Z,102867.13
2023-02-14T22:21:19.850Z,102864.56
2023-02-14T22:23:47.999Z,102869.25
2023-02-14T22:26:18.865Z,102862.38
2023-02-14T22:28:48.566Z,102865.34
2023-02-14T22:31:17.405Z,102858.88
2023-02-14T22:33:45.448Z,102857.50
2023-02-14T22:36:14.721Z,102853.84
2023-02-14T22:38:42.822Z,102854.78
2023-02-14T22:41:11.969Z,102851.06
2023-02-14T22:43:40.687Z,102848.50
2023-02-14T22:46:10.406Z,102840.94
2023-02-14T22:48:39.015Z,102834.22
2023-02-14T22:51:12.051Z,102833.22
2023-02-14T22:53:41.138Z,102837.38
2023-02-14T22:56:13.715Z,102836.69
2023-02-14T22:58:42.017Z,102839.06
2023-02-14T23:01:14.381Z,102826.53
2023-02-14T23:03:42.412Z,102829.69
2023-02-14T23:06:11.041Z,102831.53
2023-02-14T23:08:41.543Z,102824.38
2023-02-14T23:11:11.356Z,102828.81
2023-02-14T23:13:53.466Z,102825.03
2023-02-14T23:16:38.964Z,102824.19
2023-02-14T23:19:24.215Z,102817.28
2023-02-14T23:21:57.878Z,102808.38
2023-02-14T23:24:27.117Z,102816.44
2023-02-14T23:26:55.966Z,102813.78
2023-02-14T23:29:23.879Z,102812.91
2023-02-14T23:31:51.831Z,102806.72
2023-02-14T23:34:19.921Z,102804.44
2023-02-14T23:36:48.003Z,102800.63
2023-02-14T23:39:15.834Z,102792.22
2023-02-14T23:41:50.014Z,102784.81
2023-02-14T23:44:19.820Z,102789.97
2023-02-14T23:46:48.536Z,102790.56
2023-02-14T23:49:17.740Z,102797.53
2023-02-14T23:51:46.483Z,102799.63
2023-02-14T23:54:14.904Z,102794.19
2023-02-14T23:56:43.422Z,102793.91
2023-02-14T23:59:13.026Z,102795.38
